Minerva Virgo — SXXT — position and weather

sailwx.info

Track history (hours):
 
Tides and Currents Weather Stations Pressure Air Temp Water Temp Dewpoint Dewpoint Depression Visibility Wind Speed Wind Dir Waves Ship Positions

Minerva Virgo

Last reported at 2014-Dec-20 00:33 UTC. Time now 2014-Dec-20 16:27 UTC.
Position N 34°22' E 033°05'.

Length 182 m; draft 8.2 m.

Type: Tanker. MMSI: 240730000.

Date/timePositionNaut miles runAvg speedWind from/ knotsBaromVisibWave heightAir tempDewpointWater temp
2014-Dec-20 00:33N 34°22' E 033°05'10 9.9
2014-Dec-19 23:33N 34°30' E 033°13'4 4.1
2014-Dec-19 22:33N 34°32' E 033°17'0 0.5
2014-Dec-19 21:33N 34°32' E 033°17'0 0.2
2014-Dec-19 20:33N 34°32' E 033°17'0 0.2
2014-Dec-19 19:33N 34°32' E 033°17'0 0.2
2014-Dec-19 18:33N 34°31' E 033°17'0 0.2
2014-Dec-19 17:33N 34°31' E 033°17'0 0.3
2014-Dec-19 16:33N 34°31' E 033°17'0 0.5
2014-Dec-19 15:33N 34°31' E 033°18'1 1.0
2014-Dec-19 14:33N 34°30' E 033°18'3 2.9
2014-Dec-19 13:29N 34°26' E 033°17'5 4.5
2014-Dec-19 12:28N 34°22' E 033°17'5 4.2
2014-Dec-19 11:17N 34°17' E 033°16'1 0.5
2014-Dec-19 10:09N 34°17' E 033°17'0 0.2
2014-Dec-19 09:06N 34°17' E 033°17'0 0.2
2014-Dec-19 06:30N 34°18' E 033°17'0 0.4
2014-Dec-19 05:33N 34°18' E 033°16'0 0.5
2014-Dec-19 04:31N 34°18' E 033°16'2 0.4
2014-Dec-19 00:33N 34°18' E 033°14'0 0.4
2014-Dec-18 23:29N 34°18' E 033°13'0 0.5
2014-Dec-18 22:28N 34°18' E 033°13'1 0.6
2014-Dec-18 21:32N 34°18' E 033°12'1 0.6
2014-Dec-18 20:33N 34°17' E 033°12'0 0.4
2014-Dec-18 19:33N 34°17' E 033°11'0 0.3
2014-Dec-18 18:33N 34°17' E 033°11'0 0.2
2014-Dec-18 17:33N 34°17' E 033°11'0 0.2
2014-Dec-18 16:33N 34°17' E 033°10'0 0.3
2014-Dec-18 15:33N 34°17' E 033°10'1 0.9
2014-Dec-18 14:33N 34°18' E 033°10'3 3.2
2014-Dec-18 13:32N 34°21' E 033°11'5 4.7
2014-Dec-18 12:33N 34°26' E 033°13'3 3.4
2014-Dec-18 11:33N 34°29' E 033°14'1 1.1
2014-Dec-18 10:33N 34°28' E 033°15'3 2.5
2014-Dec-18 09:33N 34°26' E 033°13'8 7.9
2014-Dec-18 08:33N 34°24' E 033°04'3 2.9
2014-Dec-18 07:31N 34°24' E 032°60'1 0.6
2014-Dec-18 06:31N 34°24' E 033°01'1 0.5
2014-Dec-18 05:31N 34°24' E 033°01'1 0.6
2014-Dec-18 04:31N 34°24' E 033°02'1 0.7
2014-Dec-18 03:31N 34°24' E 033°03'1 0.6
2014-Dec-18 02:31N 34°24' E 033°03'1 0.6
2014-Dec-18 01:31N 34°24' E 033°04'1 0.5
2014-Dec-18 00:31N 34°25' E 033°05'1 0.5
2014-Dec-17 23:31N 34°25' E 033°05'1 0.6
2014-Dec-17 22:31N 34°25' E 033°06'1 0.7
2014-Dec-17 21:31N 34°25' E 033°07'1 0.7
2014-Dec-17 20:31N 34°26' E 033°08'1 0.7
2014-Dec-17 19:31N 34°26' E 033°09'1 0.8
2014-Dec-17 18:07N 34°26' E 033°10'3 0.8
2014-Dec-17 15:07N 34°24' E 033°12'0 0.4
2014-Dec-17 14:31N 34°24' E 033°13'1 1.3
2014-Dec-17 13:26N 34°26' E 033°13'0 0.4
2014-Dec-17 12:32N 34°26' E 033°13'1 0.5
2014-Dec-17 11:29N 34°26' E 033°14'0 0.4
2014-Dec-17 10:32N 34°26' E 033°14'0 0.4
2014-Dec-17 09:32N 34°26' E 033°14'0 0.4
2014-Dec-17 08:32N 34°27' E 033°15'0 0.4
2014-Dec-17 07:34N 34°27' E 033°15'0 0.4
2014-Dec-17 06:33N 34°27' E 033°16'0 0.4
2014-Dec-17 05:34N 34°27' E 033°16'0 0.4
2014-Dec-17 04:32N 34°27' E 033°16'0 0.4
2014-Dec-17 03:33N 34°27' E 033°17'0 0.3
2014-Dec-17 02:34N 34°27' E 033°17'0 0.2
2014-Dec-17 01:33N 34°27' E 033°17'0 0.2
2014-Dec-17 00:33N 34°27' E 033°17'3 2.9
2014-Dec-16 23:33N 34°28' E 033°14'1211.7
2014-Dec-16 22:33N 34°28' E 032°60'1211.6
2014-Dec-16 21:33N 34°27' E 032°46'1211.5
2014-Dec-16 20:32N 34°26' E 032°31'1311.4
2014-Dec-16 19:26N 34°29' E 032°17'27711.5
2014-Dec-15 19:23N 36°14' E 027°02'2111.0
2014-Dec-15 17:28N 36°32' E 026°48'1011.0
2014-Dec-15 16:33N 36°41' E 026°44'1211.6
2014-Dec-15 15:33N 36°53' E 026°42'1111.0
2014-Dec-15 14:33N 37°03' E 026°36'1212.5
2014-Dec-15 13:33N 37°10' E 026°23'1212.3
2014-Dec-15 12:33N 37°17' E 026°11'1211.7
2014-Dec-15 11:33N 37°24' E 025°59'1110.8
2014-Dec-15 10:33N 37°31' E 025°48'1111.1
2014-Dec-15 09:32N 37°41' E 025°43'1111.2
2014-Dec-15 08:33N 37°52' E 025°39'1211.5
2014-Dec-15 07:30N 38°03' E 025°34'1311.1
2014-Dec-15 06:21N 38°15' E 025°28'911.1
2014-Dec-15 05:30N 38°23' E 025°22'263 8.2
2014-Dec-13 21:34N 41°29' E 029°25'2 2.0
2014-Dec-13 20:33N 41°31' E 029°27'1 0.8
2014-Dec-13 19:33N 41°31' E 029°26'1 0.8
2014-Dec-13 18:27N 41°31' E 029°25'2 0.8
2014-Dec-13 16:27N 41°31' E 029°22'1 0.3
2014-Dec-13 14:31N 41°31' E 029°22'9 9.1
2014-Dec-13 13:33N 41°34' E 029°33'2 1.4
2014-Dec-13 12:26N 41°33' E 029°34'0 0.2
2014-Dec-13 10:05N 41°33' E 029°33'0 0.2
2014-Dec-13 09:25N 41°33' E 029°33'0 0.3
2014-Dec-13 08:24N 41°34' E 029°33'0 0.4
2014-Dec-13 07:28N 41°34' E 029°33'0 0.4
2014-Dec-13 06:26N 41°35' E 029°33'1 0.7
2014-Dec-13 05:26N 41°35' E 029°33'1 0.8
2014-Dec-13 04:30N 41°36' E 029°33'1 0.9
2014-Dec-13 03:09N 41°37' E 029°33'  
Track history (hours):
 
Tides and Currents Weather Stations Pressure Air Temp Water Temp Dewpoint Dewpoint Depression Visibility Wind Speed Wind Dir Waves Ship Positions

Minerva Virgo

Last reported at 2014-Dec-20 00:33 UTC. Time now 2014-Dec-20 16:27 UTC.
Position N 34°22' E 033°05'.

Length 182 m; draft 8.2 m.

Type: Tanker. MMSI: 240730000.

Date/timePositionNaut miles runAvg speedWind from/ knotsBaromVisibWave heightAir tempDewpointWater temp
2014-Dec-20 00:33N 34°22' E 033°05'10 9.9
2014-Dec-19 23:33N 34°30' E 033°13'4 4.1
2014-Dec-19 22:33N 34°32' E 033°17'0 0.5
2014-Dec-19 21:33N 34°32' E 033°17'0 0.2
2014-Dec-19 20:33N 34°32' E 033°17'0 0.2
2014-Dec-19 19:33N 34°32' E 033°17'0 0.2
2014-Dec-19 18:33N 34°31' E 033°17'0 0.2
2014-Dec-19 17:33N 34°31' E 033°17'0 0.3
2014-Dec-19 16:33N 34°31' E 033°17'0 0.5
2014-Dec-19 15:33N 34°31' E 033°18'1 1.0
2014-Dec-19 14:33N 34°30' E 033°18'3 2.9
2014-Dec-19 13:29N 34°26' E 033°17'5 4.5
2014-Dec-19 12:28N 34°22' E 033°17'5 4.2
2014-Dec-19 11:17N 34°17' E 033°16'1 0.5
2014-Dec-19 10:09N 34°17' E 033°17'0 0.2
2014-Dec-19 09:06N 34°17' E 033°17'0 0.2
2014-Dec-19 06:30N 34°18' E 033°17'0 0.4
2014-Dec-19 05:33N 34°18' E 033°16'0 0.5
2014-Dec-19 04:31N 34°18' E 033°16'2 0.4
2014-Dec-19 00:33N 34°18' E 033°14'0 0.4
2014-Dec-18 23:29N 34°18' E 033°13'0 0.5
2014-Dec-18 22:28N 34°18' E 033°13'1 0.6
2014-Dec-18 21:32N 34°18' E 033°12'1 0.6
2014-Dec-18 20:33N 34°17' E 033°12'0 0.4
2014-Dec-18 19:33N 34°17' E 033°11'0 0.3
2014-Dec-18 18:33N 34°17' E 033°11'0 0.2
2014-Dec-18 17:33N 34°17' E 033°11'0 0.2
2014-Dec-18 16:33N 34°17' E 033°10'0 0.3
2014-Dec-18 15:33N 34°17' E 033°10'1 0.9
2014-Dec-18 14:33N 34°18' E 033°10'3 3.2
2014-Dec-18 13:32N 34°21' E 033°11'5 4.7
2014-Dec-18 12:33N 34°26' E 033°13'3 3.4
2014-Dec-18 11:33N 34°29' E 033°14'1 1.1
2014-Dec-18 10:33N 34°28' E 033°15'3 2.5
2014-Dec-18 09:33N 34°26' E 033°13'8 7.9
2014-Dec-18 08:33N 34°24' E 033°04'3 2.9
2014-Dec-18 07:31N 34°24' E 032°60'1 0.6
2014-Dec-18 06:31N 34°24' E 033°01'1 0.5
2014-Dec-18 05:31N 34°24' E 033°01'1 0.6
2014-Dec-18 04:31N 34°24' E 033°02'1 0.7
2014-Dec-18 03:31N 34°24' E 033°03'1 0.6
2014-Dec-18 02:31N 34°24' E 033°03'1 0.6
2014-Dec-18 01:31N 34°24' E 033°04'1 0.5
2014-Dec-18 00:31N 34°25' E 033°05'1 0.5
2014-Dec-17 23:31N 34°25' E 033°05'1 0.6
2014-Dec-17 22:31N 34°25' E 033°06'1 0.7
2014-Dec-17 21:31N 34°25' E 033°07'1 0.7
2014-Dec-17 20:31N 34°26' E 033°08'1 0.7
2014-Dec-17 19:31N 34°26' E 033°09'1 0.8
2014-Dec-17 18:07N 34°26' E 033°10'3 0.8
2014-Dec-17 15:07N 34°24' E 033°12'0 0.4
2014-Dec-17 14:31N 34°24' E 033°13'1 1.3
2014-Dec-17 13:26N 34°26' E 033°13'0 0.4
2014-Dec-17 12:32N 34°26' E 033°13'1 0.5
2014-Dec-17 11:29N 34°26' E 033°14'0 0.4
2014-Dec-17 10:32N 34°26' E 033°14'0 0.4
2014-Dec-17 09:32N 34°26' E 033°14'0 0.4
2014-Dec-17 08:32N 34°27' E 033°15'0 0.4
2014-Dec-17 07:34N 34°27' E 033°15'0 0.4
2014-Dec-17 06:33N 34°27' E 033°16'0 0.4
2014-Dec-17 05:34N 34°27' E 033°16'0 0.4
2014-Dec-17 04:32N 34°27' E 033°16'0 0.4
2014-Dec-17 03:33N 34°27' E 033°17'0 0.3
2014-Dec-17 02:34N 34°27' E 033°17'0 0.2
2014-Dec-17 01:33N 34°27' E 033°17'0 0.2
2014-Dec-17 00:33N 34°27' E 033°17'3 2.9
2014-Dec-16 23:33N 34°28' E 033°14'1211.7
2014-Dec-16 22:33N 34°28' E 032°60'1211.6
2014-Dec-16 21:33N 34°27' E 032°46'1211.5
2014-Dec-16 20:32N 34°26' E 032°31'1311.4
2014-Dec-16 19:26N 34°29' E 032°17'27711.5
2014-Dec-15 19:23N 36°14' E 027°02'2111.0
2014-Dec-15 17:28N 36°32' E 026°48'1011.0
2014-Dec-15 16:33N 36°41' E 026°44'1211.6
2014-Dec-15 15:33N 36°53' E 026°42'1111.0
2014-Dec-15 14:33N 37°03' E 026°36'1212.5
2014-Dec-15 13:33N 37°10' E 026°23'1212.3
2014-Dec-15 12:33N 37°17' E 026°11'1211.7
2014-Dec-15 11:33N 37°24' E 025°59'1110.8
2014-Dec-15 10:33N 37°31' E 025°48'1111.1
2014-Dec-15 09:32N 37°41' E 025°43'1111.2
2014-Dec-15 08:33N 37°52' E 025°39'1211.5
2014-Dec-15 07:30N 38°03' E 025°34'1311.1
2014-Dec-15 06:21N 38°15' E 025°28'911.1
2014-Dec-15 05:30N 38°23' E 025°22'263 8.2
2014-Dec-13 21:34N 41°29' E 029°25'2 2.0
2014-Dec-13 20:33N 41°31' E 029°27'1 0.8
2014-Dec-13 19:33N 41°31' E 029°26'1 0.8
2014-Dec-13 18:27N 41°31' E 029°25'2 0.8
2014-Dec-13 16:27N 41°31' E 029°22'1 0.3
2014-Dec-13 14:31N 41°31' E 029°22'9 9.1
2014-Dec-13 13:33N 41°34' E 029°33'2 1.4
2014-Dec-13 12:26N 41°33' E 029°34'0 0.2
2014-Dec-13 10:05N 41°33' E 029°33'0 0.2
2014-Dec-13 09:25N 41°33' E 029°33'0 0.3
2014-Dec-13 08:24N 41°34' E 029°33'0 0.4
2014-Dec-13 07:28N 41°34' E 029°33'0 0.4
2014-Dec-13 06:26N 41°35' E 029°33'1 0.7
2014-Dec-13 05:26N 41°35' E 029°33'1 0.8
2014-Dec-13 04:30N 41°36' E 029°33'1 0.9
2014-Dec-13 03:09N 41°37' E 029°33'  

Dump ship's entire track history